METAR Data
IDs: Format: Raw Decoded Include TAF

Data at: 0535 UTC 26 Sep 2018

KCDH 260515Z AUTO 00000KT 5SM HZ SCT047 BKN080 OVC100 24/22 A3002 RMK AO2
KCDH 260455Z AUTO 00000KT 7SM FEW019 SCT060 BKN075 24/22 A3002 RMK AO2
KCDH 260435Z AUTO 00000KT 9SM -DZ FEW019 BKN050 OVC075 24/22 A3001 RMK AO2
KCDH 260415Z AUTO 00000KT 9SM FEW045 BKN065 OVC075 25/22 A3002 RMK AO2
KCDH 260355Z AUTO 00000KT 10SM SCT046 BKN055 OVC070 24/22 A3002 RMK AO2
KCDH 260335Z AUTO 00000KT 9SM SCT046 SCT055 OVC065 24/22 A3002 RMK AO2
KCDH 260315Z AUTO 04003KT 8SM OVC065 24/22 A3001 RMK AO2
KCDH 260255Z AUTO 00000KT 10SM OVC075 25/21 A3001 RMK AO2
KCDH 260235Z AUTO 00000KT 10SM OVC070 25/21 A3000 RMK AO2
KCDH 260215Z AUTO 16004KT 10SM FEW047 OVC075 25/21 A2999 RMK AO2
KCDH 260155Z AUTO 16008KT 10SM FEW075 SCT090 BKN100 25/22 A2999 RMK AO2
KCDH 260135Z AUTO 16005KT 10SM FEW048 FEW055 BKN100 26/22 A2998 RMK AO2
KCDH 260115Z AUTO 16008KT 10SM SCT049 26/22 A2997 RMK AO2
KCDH 260055Z AUTO 15004KT 10SM BKN049 26/22 A2996 RMK AO2
KCDH 260035Z AUTO 00000KT 10SM FEW050 FEW055 26/22 A2994 RMK AO2
KCDH 260015Z AUTO 17003KT 9SM FEW050 FEW055 27/22 A2994 RMK AO2
KCDH 252355Z AUTO 16004KT 10SM FEW055 SCT070 29/22 A2993 RMK AO2
KCDH 252335Z AUTO 16004KT 9SM SCT055 BKN070 BKN120 30/22 A2992 RMK AO2
KCDH 252315Z AUTO 16005KT 9SM SCT120 31/21 A2992 RMK AO2
KCDH 252255Z AUTO 17003KT 9SM FEW120 31/21 A2992 RMK AO2
KCDH 252235Z AUTO 15003KT 9SM BKN120 31/21 A2992 RMK AO2
KCDH 252215Z AUTO 15003KT 9SM OVC120 30/21 A2992 RMK AO2
KCDH 252155Z AUTO 14004KT 9SM BKN110 30/21 A2991 RMK AO2
KCDH 252135Z AUTO 17003KT 9SM BKN120 31/21 A2991 RMK AO2
KCDH 252115Z AUTO 19003KT 9SM BKN120 31/20 A2991 RMK AO2
KCDH 252055Z AUTO 15006KT 9SM FEW047 SCT060 SCT070 31/20 A2991 RMK AO2
KCDH 252035Z AUTO 19005KT 10SM FEW042 SCT050 SCT060 31/20 A2992 RMK AO2
KCDH 252015Z AUTO 14006KT 9SM SCT043 SCT055 SCT065 34/20 A2992 RMK AO2
KCDH 251955Z AUTO 23005KT 9SM FEW060 32/20 A2993 RMK AO2
KCDH 251935Z AUTO 22003KT 9SM CLR 33/20 A2994 RMK AO2
KCDH 251915Z AUTO 19004KT 9SM FEW040 SCT060 BKN070 33/21 A2995 RMK AO2
KCDH 251855Z AUTO 22003KT 9SM FEW060 FEW070 SCT090 32/21 A2996 RMK AO2
KCDH 251835Z AUTO 23004KT 9SM FEW041 FEW055 SCT090 31/21 A2997 RMK AO2
KCDH 251815Z AUTO VRB05KT 9SM FEW045 FEW070 32/21 A2997 RMK AO2
KCDH 251755Z AUTO 20005KT 8SM FEW034 SCT045 SCT065 31/21 A2998 RMK AO2
KCDH 251735Z AUTO 21009KT 9SM FEW034 32/21 A2999 RMK AO2
KCDH 251715Z AUTO 20008KT 9SM FEW033 32/21 A2999 RMK AO2
KCDH 251655Z AUTO 23007KT 9SM FEW028 FEW034 31/21 A2999 RMK AO2
KCDH 251635Z AUTO 21007KT 9SM SCT027 SCT070 31/22 A2999 RMK AO2
KCDH 251615Z AUTO 24007G12KT 8SM FEW027 FEW070 30/21 A3000 RMK AO2
KCDH 251555Z AUTO VRB06KT 9SM CLR 29/21 A3000 RMK AO2
KCDH 251535Z AUTO 22009KT 9SM CLR 29/21 A3000 RMK AO2
KCDH 251515Z AUTO 20005KT 7SM CLR 28/21 A3000 RMK AO2
KCDH 251455Z AUTO VRB04KT 8SM CLR 27/21 A3000 RMK AO2
KCDH 251435Z AUTO VRB03KT 9SM CLR 25/21 A3000 RMK AO2
KCDH 251415Z AUTO 17004KT 8SM CLR 24/21 A2999 RMK AO2
KCDH 251355Z AUTO 16004KT 7SM CLR 23/21 A2999 RMK AO2
KCDH 251335Z AUTO 16004KT 9SM CLR 23/20 A2999 RMK AO2
KCDH 251315Z AUTO 00000KT 8SM CLR 22/20 A2999 RMK AO2
KCDH 251255Z AUTO 00000KT 6SM BR CLR 21/20 A2998 RMK AO2
KCDH 251235Z AUTO 00000KT 4SM BR CLR 21/19 A2998 RMK AO2
KCDH 251215Z AUTO 00000KT 3SM BR CLR 20/19 A2998 RMK AO2
KCDH 251155Z AUTO 00000KT 3SM BR CLR 20/19 A2997 RMK AO2
KCDH 251135Z AUTO 00000KT 4SM BR CLR 20/19 A2997 RMK AO2
KCDH 251115Z AUTO 00000KT 4SM BR CLR 20/19 A2997 RMK AO2
KCDH 251055Z AUTO 00000KT 5SM BR FEW070 20/19 A2997 RMK AO2
KCDH 251030Z AUTO 00000KT 6SM BR BKN060 OVC070 20/19 A2996 RMK AO2
KCDH 251015Z AUTO 00000KT 5SM BR OVC060 20/19 A2996 RMK AO2
KCDH 250955Z AUTO 00000KT 5SM BR BKN055 20/19 A2996 RMK AO2
KCDH 250935Z AUTO 00000KT 6SM BR OVC050 20/19 A2995 RMK AO2
KCDH 250915Z AUTO 00000KT 1SM BR BKN055 20/19 A2995 RMK AO2
KCDH 250855Z AUTO 00000KT 2 1/2SM BR CLR 20/19 A2995 RMK AO2
KCDH 250835Z AUTO 00000KT 4SM BR CLR 20/19 A2994 RMK AO2
KCDH 250815Z AUTO 00000KT 3SM BR CLR 20/19 A2994 RMK AO2
KCDH 250755Z AUTO 00000KT 1/2SM FG VV005 20/19 A2994 RMK AO2
KCDH 250735Z AUTO 00000KT 1/2SM FG VV005 20/19 A2993 RMK AO2
KCDH 250715Z AUTO 00000KT 1 1/4SM BR CLR 20/19 A2993 RMK AO2
KCDH 250655Z AUTO 00000KT 2 1/2SM -DZ CLR 21/19 A2993 RMK AO2 VIS 2V3
KCDH 250635Z AUTO 00000KT 1 1/2SM BR CLR 21/19 A2992 RMK AO2 VIS 3/4V2 1/2
KCDH 250615Z AUTO 00000KT 1/4SM FG VV002 21/20 A2993 RMK AO2
KCDH 250555Z AUTO 00000KT 1/4SM FG VV002 21/20 A2993 RMK AO2
KCDH 250535Z AUTO 00000KT 2SM BR CLR 21/20 A2992 RMK AO2
KCDH 250515Z AUTO 00000KT 5SM BR CLR 22/20 A2992 RMK AO2
KCDH 250455Z AUTO 14004KT 5SM BR CLR 22/20 A2992 RMK AO2
KCDH 250435Z AUTO 00000KT 8SM CLR 22/20 A2992 RMK AO2
KCDH 250415Z AUTO 00000KT 8SM CLR 22/20 A2992 RMK AO2
KCDH 250355Z AUTO 23004KT 9SM FEW060 23/21 A2992 RMK AO2
KCDH 250335Z AUTO 23003KT 8SM BKN055 23/21 A2992 RMK AO2
KCDH 250315Z AUTO 00000KT 8SM OVC055 23/22 A2991 RMK AO2
KCDH 250255Z AUTO 21004KT 6SM BR BKN055 23/22 A2991 RMK AO2
KCDH 250235Z AUTO 00000KT 6SM BR BKN050 23/22 A2990 RMK AO2
KCDH 250215Z AUTO 00000KT 3SM BR CLR 23/22 A2990 RMK AO2
KCDH 250155Z AUTO 00000KT 7SM FEW060 24/22 A2989 RMK AO2
KCDH 250135Z AUTO 00000KT 7SM SCT060 24/22 A2988 RMK AO2
KCDH 250115Z AUTO 00000KT 8SM FEW046 BKN060 25/23 A2988 RMK AO2
KCDH 250055Z AUTO 00000KT 8SM BKN060 26/23 A2988 RMK AO2
KCDH 250035Z AUTO 20003KT 9SM OVC060 26/23 A2987 RMK AO2
KCDH 250015Z AUTO 20003KT 8SM OVC065 26/23 A2987 RMK AO2
KCDH 242355Z AUTO 00000KT 9SM OVC065 27/22 A2986 RMK AO2
KCDH 242335Z AUTO 00000KT 8SM FEW034 OVC065 28/22 A2986 RMK AO2
KCDH 242315Z AUTO 00000KT 8SM SCT035 BKN046 OVC065 28/23 A2986 RMK AO2
KCDH 242255Z AUTO 20005KT 8SM SCT035 BKN046 OVC065 28/22 A2985 RMK AO2
KCDH 242235Z AUTO 21004KT 8SM BKN060 29/22 A2985 RMK AO2
KCDH 242215Z AUTO 19004KT 8SM OVC060 29/22 A2985 RMK AO2
KCDH 242155Z AUTO 19004KT 8SM OVC060 29/23 A2985 RMK AO2
KCDH 242135Z AUTO 20004KT 9SM BKN060 29/22 A2985 RMK AO2
KCDH 242115Z AUTO 21004KT 8SM BKN060 30/22 A2985 RMK AO2
KCDH 242055Z AUTO 20006KT 8SM SCT060 30/23 A2985 RMK AO2 P0001
KCDH 242035Z AUTO 20006KT 9SM SCT042 OVC060 29/22 A2985 RMK AO2
KCDH 242015Z AUTO 20005KT 4SM HZ BKN043 BKN050 OVC060 27/23 A2986 RMK AO2
KCDH 241955Z AUTO 20006KT 8SM FEW024 BKN048 OVC075 29/22 A2986 RMK AO2
KCDH 241935Z AUTO 16009KT 8SM SCT024 SCT041 BKN050 31/22 A2986 RMK AO2
KCDH 241915Z AUTO 15006KT 8SM FEW022 FEW041 BKN065 30/22 A2987 RMK AO2
KCDH 241855Z AUTO VRB06KT 8SM SCT055 BKN065 30/23 A2988 RMK AO2
KCDH 241835Z AUTO 20004KT 8SM BKN048 OVC055 29/22 A2990 RMK AO2
KCDH 241815Z AUTO 16005KT 6SM HZ SCT035 BKN041 OVC047 27/23 A2991 RMK AO2
KCDH 241755Z AUTO 17005KT 5SM -RA FEW017 SCT023 BKN032 27/23 A2992 RMK AO2